createdAt,value
2019-01-08T00:00:40.945Z,0
2019-01-08T00:01:43.086Z,0
2019-01-08T00:02:45.534Z,0
2019-01-08T00:03:47.681Z,0
2019-01-08T00:04:49.833Z,0
2019-01-08T00:05:52.070Z,0
2019-01-08T00:06:54.183Z,0
2019-01-08T00:07:56.584Z,0
2019-01-08T00:08:58.716Z,0
2019-01-08T00:10:01.076Z,0
2019-01-08T00:11:03.196Z,0
2019-01-08T00:12:05.320Z,0
2019-01-08T00:13:07.470Z,0
2019-01-08T00:14:09.595Z,0
2019-01-08T00:15:11.723Z,0
2019-01-08T00:16:13.866Z,0
2019-01-08T00:17:16.387Z,0
2019-01-08T00:18:18.510Z,0
2019-01-08T00:19:20.739Z,0
2019-01-08T00:20:23.020Z,0
2019-01-08T00:21:25.154Z,0
2019-01-08T00:22:27.295Z,0
2019-01-08T00:23:29.710Z,0
2019-01-08T00:24:31.848Z,0
2019-01-08T00:25:33.979Z,0
2019-01-08T00:26:36.105Z,0
2019-01-08T00:27:38.531Z,0
2019-01-08T00:28:44.711Z,0
2019-01-08T00:29:46.841Z,0
2019-01-08T00:30:48.958Z,0
2019-01-08T00:31:51.403Z,0
2019-01-08T00:32:53.554Z,0
2019-01-08T00:33:55.803Z,0
2019-01-08T00:34:57.952Z,0
2019-01-08T00:36:00.638Z,0
2019-01-08T00:37:02.775Z,0
2019-01-08T00:38:05.028Z,0
2019-01-08T00:39:07.176Z,0
2019-01-08T00:40:09.302Z,0
2019-01-08T00:41:11.413Z,0
2019-01-08T00:42:13.575Z,0
2019-01-08T00:43:15.703Z,0
2019-01-08T00:44:17.829Z,0
2019-01-08T00:45:19.996Z,0
2019-01-08T00:46:22.115Z,0
2019-01-08T00:47:24.550Z,0
2019-01-08T00:48:26.684Z,0
2019-01-08T00:49:28.836Z,0
2019-01-08T00:50:31.262Z,0
2019-01-08T00:51:33.484Z,0
2019-01-08T00:52:35.638Z,0
2019-01-08T00:53:37.763Z,0
2019-01-08T00:54:39.950Z,0
2019-01-08T00:55:42.085Z,0
2019-01-08T00:56:44.223Z,0
2019-01-08T00:57:46.349Z,0
2019-01-08T00:58:53.329Z,0
2019-01-08T00:59:55.462Z,0
2019-01-08T01:00:57.587Z,0
2019-01-08T01:01:59.741Z,0
2019-01-08T01:03:01.896Z,0
2019-01-08T01:04:04.015Z,0
2019-01-08T01:05:06.140Z,0
2019-01-08T01:06:08.282Z,0
2019-01-08T01:07:10.400Z,0
2019-01-08T01:08:12.824Z,0
2019-01-08T01:09:14.961Z,0
2019-01-08T01:10:17.089Z,0
2019-01-08T01:11:19.227Z,0
2019-01-08T01:12:21.352Z,0
2019-01-08T01:13:23.512Z,0
2019-01-08T01:14:25.655Z,0
2019-01-08T01:15:27.856Z,0
2019-01-08T01:16:29.984Z,0
2019-01-08T01:17:32.404Z,0
2019-01-08T01:18:34.939Z,0
2019-01-08T01:19:37.075Z,0
2019-01-08T01:20:39.211Z,0
2019-01-08T01:21:41.324Z,0
2019-01-08T01:22:43.537Z,0
2019-01-08T01:23:45.681Z,0
2019-01-08T01:24:47.831Z,0
2019-01-08T01:25:50.236Z,0
2019-01-08T01:26:53.136Z,0
2019-01-08T01:27:55.266Z,0
2019-01-08T01:29:01.717Z,0
2019-01-08T01:30:03.847Z,0
2019-01-08T01:31:05.967Z,0
2019-01-08T01:32:08.484Z,0
2019-01-08T01:33:10.610Z,0
2019-01-08T01:34:12.740Z,0
2019-01-08T01:35:14.868Z,0
2019-01-08T01:36:17.077Z,0
2019-01-08T01:37:19.227Z,0
2019-01-08T01:38:21.466Z,0
2019-01-08T01:39:23.597Z,0
2019-01-08T01:40:25.726Z,0
2019-01-08T01:41:28.261Z,0
2019-01-08T01:42:30.662Z,0
2019-01-08T01:43:32.805Z,0
2019-01-08T01:44:35.217Z,0
2019-01-08T01:45:37.373Z,0
2019-01-08T01:46:39.808Z,0
2019-01-08T01:47:41.945Z,0
2019-01-08T01:48:44.098Z,0
2019-01-08T01:49:46.522Z,0
2019-01-08T01:50:48.680Z,0
2019-01-08T01:51:50.845Z,0
2019-01-08T01:52:53.025Z,0
2019-01-08T01:53:55.163Z,0
2019-01-08T01:54:57.599Z,0
2019-01-08T01:55:59.720Z,0
2019-01-08T01:57:02.135Z,0
2019-01-08T01:58:04.573Z,0
2019-01-08T01:59:10.011Z,0
2019-01-08T02:00:12.174Z,0
2019-01-08T02:01:14.318Z,0
2019-01-08T02:02:16.441Z,0
2019-01-08T02:03:18.977Z,0
2019-01-08T02:04:21.500Z,0
2019-01-08T02:05:23.913Z,0
2019-01-08T02:06:26.043Z,0
2019-01-08T02:07:28.169Z,0
2019-01-08T02:08:30.691Z,0
2019-01-08T02:09:32.820Z,0
2019-01-08T02:10:34.944Z,0
2019-01-08T02:11:37.145Z,0
2019-01-08T02:12:39.286Z,0
2019-01-08T02:13:41.432Z,0
2019-01-08T02:14:43.598Z,0
2019-01-08T02:15:45.735Z,0
2019-01-08T02:16:47.889Z,0
2019-01-08T02:17:50.111Z,0
2019-01-08T02:18:52.245Z,0
2019-01-08T02:19:54.463Z,0
2019-01-08T02:20:56.591Z,0
2019-01-08T02:21:58.721Z,0
2019-01-08T02:23:00.869Z,0
2019-01-08T02:24:03.020Z,0
2019-01-08T02:25:05.166Z,0
2019-01-08T02:26:07.315Z,0
2019-01-08T02:27:09.429Z,0
2019-01-08T02:28:11.627Z,0
2019-01-08T02:29:17.991Z,0
2019-01-08T02:30:20.142Z,0
2019-01-08T02:31:22.988Z,0
2019-01-08T02:32:25.128Z,0
2019-01-08T02:33:27.568Z,0
2019-01-08T02:34:29.695Z,0
2019-01-08T02:35:32.237Z,0
2019-01-08T02:36:34.425Z,0
2019-01-08T02:37:36.857Z,0
2019-01-08T02:38:38.999Z,0
2019-01-08T02:39:41.149Z,0
2019-01-08T02:40:43.389Z,0
2019-01-08T02:41:46.168Z,0
2019-01-08T02:42:48.349Z,0
2019-01-08T02:43:50.481Z,0
2019-01-08T02:44:52.918Z,0
2019-01-08T02:45:55.473Z,0
2019-01-08T02:46:58.029Z,0
2019-01-08T02:48:00.169Z,0
2019-01-08T02:49:02.452Z,0
2019-01-08T02:50:04.624Z,0
2019-01-08T02:51:06.788Z,0
2019-01-08T02:52:09.542Z,0
2019-01-08T02:53:11.696Z,0
2019-01-08T02:54:14.022Z,0
2019-01-08T02:55:16.160Z,0
2019-01-08T02:56:18.284Z,0
2019-01-08T02:57:21.088Z,0
2019-01-08T02:58:23.221Z,0
2019-01-08T02:59:26.691Z,0
2019-01-08T03:00:28.826Z,0
2019-01-08T03:01:30.990Z,0
2019-01-08T03:02:33.425Z,0
2019-01-08T03:03:35.656Z,0
2019-01-08T03:04:38.382Z,0
2019-01-08T03:05:40.510Z,0
2019-01-08T03:06:42.647Z,0
2019-01-08T03:07:44.773Z,0
2019-01-08T03:08:46.919Z,0
2019-01-08T03:09:49.066Z,0
2019-01-08T03:10:51.201Z,0
2019-01-08T03:11:53.647Z,0
2019-01-08T03:12:55.791Z,0
2019-01-08T03:13:57.930Z,0
2019-01-08T03:15:00.248Z,0
2019-01-08T03:16:02.418Z,0
2019-01-08T03:17:04.945Z,0
2019-01-08T03:18:07.089Z,0
2019-01-08T03:19:09.203Z,0
2019-01-08T03:20:11.338Z,0
2019-01-08T03:21:13.465Z,0
2019-01-08T03:22:15.621Z,0
2019-01-08T03:23:17.776Z,0
2019-01-08T03:24:19.900Z,0
2019-01-08T03:25:22.029Z,0
2019-01-08T03:26:24.177Z,0
2019-01-08T03:27:26.341Z,0
2019-01-08T03:28:28.471Z,0
2019-01-08T03:29:35.105Z,0
2019-01-08T03:30:37.272Z,0
2019-01-08T03:31:39.825Z,0
2019-01-08T03:32:41.973Z,0
2019-01-08T03:33:44.095Z,0
2019-01-08T03:34:46.225Z,0
2019-01-08T03:35:49.043Z,0
2019-01-08T03:36:51.557Z,0
2019-01-08T03:37:53.693Z,0
2019-01-08T03:38:56.225Z,0
2019-01-08T03:39:58.369Z,0
2019-01-08T03:41:00.878Z,0
2019-01-08T03:42:03.026Z,0
2019-01-08T03:43:05.460Z,0
2019-01-08T03:44:07.614Z,0
2019-01-08T03:45:09.742Z,0
2019-01-08T03:46:12.147Z,0
2019-01-08T03:47:14.272Z,0
2019-01-08T03:48:16.409Z,0
2019-01-08T03:49:18.611Z,0
2019-01-08T03:50:20.750Z,0
2019-01-08T03:51:22.870Z,0
2019-01-08T03:52:25.010Z,0
2019-01-08T03:53:27.220Z,0
2019-01-08T03:54:29.338Z,0
2019-01-08T03:55:31.464Z,0
2019-01-08T03:56:33.619Z,0
2019-01-08T03:57:36.063Z,0
2019-01-08T03:58:38.194Z,0
2019-01-08T03:59:43.517Z,0
2019-01-08T04:00:45.759Z,0
2019-01-08T04:01:47.901Z,0
2019-01-08T04:02:50.393Z,0
2019-01-08T04:03:52.525Z,0
2019-01-08T04:04:54.645Z,0
2019-01-08T04:05:56.768Z,0
2019-01-08T04:06:58.937Z,0
2019-01-08T04:08:01.080Z,0
2019-01-08T04:09:03.308Z,0
2019-01-08T04:10:05.445Z,0
2019-01-08T04:11:07.569Z,0
2019-01-08T04:12:09.712Z,0
2019-01-08T04:13:11.847Z,0
2019-01-08T04:14:13.980Z,0
2019-01-08T04:15:16.400Z,0
2019-01-08T04:16:18.536Z,0
2019-01-08T04:17:20.661Z,0
2019-01-08T04:18:22.802Z,0
2019-01-08T04:19:25.326Z,0
2019-01-08T04:20:27.459Z,0
2019-01-08T04:21:29.871Z,0
2019-01-08T04:22:32.006Z,0
2019-01-08T04:23:34.164Z,0
2019-01-08T04:24:36.315Z,0
2019-01-08T04:25:38.767Z,0
2019-01-08T04:26:41.180Z,0
2019-01-08T04:27:43.617Z,0
2019-01-08T04:28:45.768Z,0
2019-01-08T04:29:52.002Z,0
2019-01-08T04:30:54.135Z,0
2019-01-08T04:31:56.255Z,0
2019-01-08T04:32:58.378Z,0
2019-01-08T04:34:00.510Z,0
2019-01-08T04:35:03.004Z,0
2019-01-08T04:36:05.141Z,0
2019-01-08T04:37:07.276Z,0
2019-01-08T04:38:09.403Z,0
2019-01-08T04:39:11.519Z,0
2019-01-08T04:40:13.946Z,0
2019-01-08T04:41:16.079Z,0
2019-01-08T04:42:18.218Z,0
2019-01-08T04:43:20.352Z,0
2019-01-08T04:44:22.498Z,0
2019-01-08T04:45:24.660Z,0
2019-01-08T04:46:27.081Z,0
2019-01-08T04:47:29.506Z,0
2019-01-08T04:48:31.675Z,0
2019-01-08T04:49:34.091Z,0
2019-01-08T04:50:36.240Z,0
2019-01-08T04:51:38.383Z,0
2019-01-08T04:52:40.839Z,0
2019-01-08T04:53:42.970Z,0
2019-01-08T04:54:45.125Z,0
2019-01-08T04:55:47.262Z,0
2019-01-08T04:56:49.417Z,0
2019-01-08T04:57:52.016Z,0
2019-01-08T04:58:54.143Z,0
2019-01-08T05:00:00.466Z,0
2019-01-08T05:01:02.636Z,0
2019-01-08T05:02:04.775Z,0
2019-01-08T05:03:06.916Z,0
2019-01-08T05:04:09.070Z,0
2019-01-08T05:05:11.212Z,0
2019-01-08T05:06:13.942Z,0
2019-01-08T05:07:16.095Z,0
2019-01-08T05:08:18.241Z,0
2019-01-08T05:09:20.384Z,0
2019-01-08T05:10:22.526Z,0
2019-01-08T05:11:24.660Z,0
2019-01-08T05:12:26.796Z,0
2019-01-08T05:13:28.903Z,0
2019-01-08T05:14:31.441Z,0
2019-01-08T05:15:33.571Z,0
2019-01-08T05:16:35.995Z,0
2019-01-08T05:17:38.122Z,0
2019-01-08T05:18:40.273Z,0
2019-01-08T05:19:42.404Z,0
2019-01-08T05:20:44.524Z,0
2019-01-08T05:21:46.677Z,0
2019-01-08T05:22:48.826Z,0
2019-01-08T05:23:50.964Z,0
2019-01-08T05:24:53.775Z,0
2019-01-08T05:25:55.903Z,0
2019-01-08T05:26:58.050Z,0
2019-01-08T05:28:00.190Z,0
2019-01-08T05:29:02.645Z,0
2019-01-08T05:30:09.688Z,0
2019-01-08T05:31:12.120Z,0
2019-01-08T05:32:14.247Z,0
2019-01-08T05:33:16.371Z,0
2019-01-08T05:34:18.508Z,0
2019-01-08T05:35:20.643Z,0
2019-01-08T05:36:22.782Z,0
2019-01-08T05:37:25.226Z,0
2019-01-08T05:38:27.357Z,0
2019-01-08T05:39:29.499Z,0
2019-01-08T05:40:31.755Z,0
2019-01-08T05:41:33.886Z,0
2019-01-08T05:42:36.035Z,0
2019-01-08T05:43:38.175Z,0
2019-01-08T05:44:40.296Z,0
2019-01-08T05:45:42.712Z,0
2019-01-08T05:46:44.844Z,0
2019-01-08T05:47:46.976Z,0
2019-01-08T05:48:49.123Z,0
2019-01-08T05:49:51.233Z,0
2019-01-08T05:50:53.382Z,0
2019-01-08T05:51:55.812Z,0
2019-01-08T05:52:57.948Z,0
2019-01-08T05:54:00.090Z,0
2019-01-08T05:55:02.613Z,0
2019-01-08T05:56:04.757Z,0
2019-01-08T05:57:06.949Z,0
2019-01-08T05:58:09.356Z,0
2019-01-08T05:59:11.464Z,0
2019-01-08T06:00:18.046Z,0
2019-01-08T06:01:20.166Z,0
2019-01-08T06:02:22.321Z,0
2019-01-08T06:03:24.456Z,0
2019-01-08T06:04:26.894Z,0
2019-01-08T06:05:29.013Z,0
2019-01-08T06:06:31.426Z,0
2019-01-08T06:07:33.947Z,0
2019-01-08T06:08:36.072Z,0
2019-01-08T06:09:38.208Z,0
2019-01-08T06:10:40.354Z,0
2019-01-08T06:11:42.489Z,0
2019-01-08T06:12:44.624Z,0
2019-01-08T06:13:46.762Z,0
2019-01-08T06:14:48.878Z,0
2019-01-08T06:15:51.001Z,0
2019-01-08T06:16:53.140Z,0
2019-01-08T06:17:55.267Z,0
2019-01-08T06:18:57.413Z,0
2019-01-08T06:19:59.532Z,0
2019-01-08T06:21:01.657Z,0
2019-01-08T06:22:03.805Z,0
2019-01-08T06:23:06.216Z,0
2019-01-08T06:24:08.614Z,0
2019-01-08T06:25:11.033Z,0
2019-01-08T06:26:13.183Z,0
2019-01-08T06:27:15.307Z,0
2019-01-08T06:28:17.459Z,0
2019-01-08T06:29:19.597Z,0
2019-01-08T06:30:26.194Z,0
2019-01-08T06:31:28.337Z,0
2019-01-08T06:32:30.469Z,0
2019-01-08T06:33:32.600Z,0
2019-01-08T06:34:34.727Z,0
2019-01-08T06:35:36.859Z,0
2019-01-08T06:36:38.999Z,0
2019-01-08T06:37:41.111Z,0
2019-01-08T06:38:43.242Z,0
2019-01-08T06:39:45.646Z,0
2019-01-08T06:40:47.768Z,0
2019-01-08T06:41:49.897Z,0
2019-01-08T06:42:52.116Z,0
2019-01-08T06:43:54.266Z,0
2019-01-08T06:44:56.388Z,0
2019-01-08T06:45:58.507Z,0
2019-01-08T06:47:00.941Z,0
2019-01-08T06:48:03.079Z,0
2019-01-08T06:49:05.217Z,0
2019-01-08T06:50:07.373Z,0
2019-01-08T06:51:09.498Z,0
2019-01-08T06:52:11.624Z,0
2019-01-08T06:53:13.754Z,0
2019-01-08T06:54:15.881Z,0
2019-01-08T06:55:17.995Z,0
2019-01-08T06:56:20.386Z,0
2019-01-08T06:57:22.526Z,0
2019-01-08T06:58:24.663Z,0
2019-01-08T06:59:26.799Z,0
2019-01-08T07:00:34.997Z,0
2019-01-08T07:01:37.116Z,0
2019-01-08T07:02:40.102Z,0
2019-01-08T07:03:42.230Z,0
2019-01-08T07:04:44.435Z,0
2019-01-08T07:05:46.573Z,0
2019-01-08T07:06:48.711Z,0
2019-01-08T07:07:51.124Z,0
2019-01-08T07:08:53.265Z,0
2019-01-08T07:09:55.379Z,0
2019-01-08T07:10:57.515Z,0
2019-01-08T07:11:59.934Z,0
2019-01-08T07:13:02.481Z,0
2019-01-08T07:14:04.618Z,0
2019-01-08T07:15:07.053Z,0
2019-01-08T07:16:09.181Z,0
2019-01-08T07:17:11.340Z,0
2019-01-08T07:18:13.460Z,0
2019-01-08T07:19:15.583Z,0
2019-01-08T07:20:17.724Z,0
2019-01-08T07:21:19.846Z,0
2019-01-08T07:22:21.998Z,0
2019-01-08T07:23:24.148Z,0
2019-01-08T07:24:26.268Z,0
2019-01-08T07:25:28.407Z,0
2019-01-08T07:26:30.537Z,0
2019-01-08T07:27:32.667Z,0
2019-01-08T07:28:34.779Z,0
2019-01-08T07:29:36.904Z,0
2019-01-08T07:30:43.450Z,0
2019-01-08T07:31:45.896Z,0
2019-01-08T07:32:48.308Z,0
2019-01-08T07:33:50.535Z,0
2019-01-08T07:34:52.675Z,0
2019-01-08T07:35:54.810Z,0
2019-01-08T07:36:56.989Z,0
2019-01-08T07:37:59.199Z,0
2019-01-08T07:39:01.406Z,0
2019-01-08T07:40:03.550Z,0
2019-01-08T07:41:05.667Z,0
2019-01-08T07:42:07.799Z,0
2019-01-08T07:43:09.946Z,1
2019-01-08T07:44:12.109Z,1
2019-01-08T07:45:14.248Z,0
2019-01-08T07:46:16.401Z,0
2019-01-08T07:47:18.525Z,0
2019-01-08T07:48:20.674Z,1
2019-01-08T07:49:22.801Z,1
2019-01-08T07:50:24.930Z,1
2019-01-08T07:51:27.084Z,1
2019-01-08T07:52:29.284Z,1
2019-01-08T07:53:31.409Z,1
2019-01-08T07:54:35.797Z,1
2019-01-08T07:55:38.069Z,1
2019-01-08T07:56:40.234Z,2
2019-01-08T07:57:42.380Z,2
2019-01-08T07:58:44.513Z,2
2019-01-08T07:59:46.935Z,2
2019-01-08T08:00:51.521Z,2
2019-01-08T08:01:53.657Z,2
2019-01-08T08:02:56.478Z,2
2019-01-08T08:03:58.910Z,2
2019-01-08T08:05:01.055Z,2
2019-01-08T08:06:03.306Z,2
2019-01-08T08:07:05.443Z,2
2019-01-08T08:08:07.582Z,2
2019-01-08T08:09:09.711Z,3
2019-01-08T08:10:11.871Z,3
2019-01-08T08:11:14.387Z,3
2019-01-08T08:12:16.610Z,3
2019-01-08T08:13:18.735Z,3
2019-01-08T08:14:20.888Z,2
2019-01-08T08:15:23.415Z,2
2019-01-08T08:16:25.853Z,3
2019-01-08T08:17:27.992Z,4
2019-01-08T08:18:30.120Z,3
2019-01-08T08:19:32.277Z,2
2019-01-08T08:20:34.689Z,3
2019-01-08T08:21:37.135Z,2
2019-01-08T08:22:39.272Z,3
2019-01-08T08:23:41.417Z,2
2019-01-08T08:24:43.956Z,2
2019-01-08T08:25:46.095Z,2
2019-01-08T08:26:48.537Z,2
2019-01-08T08:27:50.681Z,2
2019-01-08T08:28:52.831Z,2
2019-01-08T08:29:55.334Z,3
2019-01-08T08:31:00.966Z,3
2019-01-08T08:32:03.193Z,3
2019-01-08T08:33:05.341Z,3
2019-01-08T08:34:07.467Z,2
2019-01-08T08:35:10.889Z,3
2019-01-08T08:36:13.044Z,3
2019-01-08T08:37:15.185Z,4
2019-01-08T08:38:17.309Z,4
2019-01-08T08:39:19.431Z,5
2019-01-08T08:40:21.551Z,5
2019-01-08T08:41:23.759Z,6
2019-01-08T08:42:25.900Z,6
2019-01-08T08:43:28.023Z,5
2019-01-08T08:44:30.160Z,5
2019-01-08T08:45:32.303Z,4
2019-01-08T08:46:34.458Z,4
2019-01-08T08:47:36.617Z,4
2019-01-08T08:48:38.756Z,4
2019-01-08T08:49:41.306Z,5
2019-01-08T08:50:43.486Z,5
2019-01-08T08:51:45.636Z,6
2019-01-08T08:52:47.775Z,7
2019-01-08T08:53:54.212Z,9
2019-01-08T08:54:56.368Z,12
2019-01-08T08:55:58.497Z,12
2019-01-08T08:57:00.640Z,8
2019-01-08T08:58:02.776Z,4
2019-01-08T08:59:04.921Z,4
2019-01-08T09:00:07.070Z,4
2019-01-08T09:01:09.218Z,4
2019-01-08T09:02:11.382Z,3
2019-01-08T09:03:13.532Z,5
2019-01-08T09:04:15.657Z,5
2019-01-08T09:05:17.829Z,5
2019-01-08T09:06:19.955Z,5
2019-01-08T09:07:22.111Z,6
2019-01-08T09:08:24.617Z,5
2019-01-08T09:09:26.777Z,6
2019-01-08T09:10:29.246Z,8
2019-01-08T09:11:31.374Z,9
2019-01-08T09:12:33.510Z,7
2019-01-08T09:13:38.988Z,8
2019-01-08T09:14:41.542Z,10
2019-01-08T09:15:43.671Z,10
2019-01-08T09:16:45.811Z,12
2019-01-08T09:17:47.936Z,14
2019-01-08T09:18:50.092Z,8
2019-01-08T09:19:52.259Z,8
2019-01-08T09:20:54.558Z,9
2019-01-08T09:21:56.702Z,12
2019-01-08T09:22:58.833Z,12
2019-01-08T09:24:01.023Z,11
2019-01-08T09:25:03.479Z,9
2019-01-08T09:26:09.542Z,13
2019-01-08T09:27:17.650Z,13
2019-01-08T09:28:25.463Z,14
2019-01-08T09:29:33.546Z,12
2019-01-08T09:30:41.815Z,9
2019-01-08T09:31:46.455Z,7
2019-01-08T09:32:53.618Z,7
2019-01-08T09:34:01.480Z,7
2019-01-08T09:35:09.863Z,6
2019-01-08T09:36:17.815Z,6
2019-01-08T09:37:26.499Z,8
2019-01-08T09:38:34.908Z,8
2019-01-08T09:39:43.675Z,10
2019-01-08T09:40:51.637Z,12
2019-01-08T09:41:59.523Z,12
2019-01-08T09:43:08.405Z,10
2019-01-08T09:44:15.546Z,15
2019-01-08T09:45:24.649Z,15
2019-01-08T09:46:33.859Z,18
2019-01-08T09:47:45.989Z,19
2019-01-08T09:48:53.768Z,22
2019-01-08T09:50:02.857Z,22
2019-01-08T09:51:11.201Z,26
2019-01-08T09:52:20.762Z,24
2019-01-08T09:53:23.344Z,27
2019-01-08T09:54:25.487Z,28
2019-01-08T09:55:27.711Z,21
2019-01-08T09:56:29.971Z,23
2019-01-08T09:57:32.183Z,24
2019-01-08T09:58:34.306Z,25
2019-01-08T09:59:36.997Z,23
2019-01-08T10:00:39.143Z,19
2019-01-08T10:01:41.280Z,16
2019-01-08T10:02:43.695Z,18
2019-01-08T10:03:46.230Z,18
2019-01-08T10:04:48.365Z,14
2019-01-08T10:05:50.524Z,13
2019-01-08T10:06:53.063Z,13
2019-01-08T10:07:55.498Z,12
2019-01-08T10:08:57.675Z,11
2019-01-08T10:09:59.827Z,14
2019-01-08T10:11:02.630Z,14
2019-01-08T10:12:04.756Z,10
2019-01-08T10:13:06.901Z,11
2019-01-08T10:14:09.805Z,14
2019-01-08T10:15:12.097Z,11
2019-01-08T10:16:14.393Z,10
2019-01-08T10:17:16.926Z,11
2019-01-08T10:18:19.176Z,11
2019-01-08T10:19:21.823Z,10
2019-01-08T10:20:24.753Z,9
2019-01-08T10:21:27.551Z,7
2019-01-08T10:22:29.682Z,7
2019-01-08T10:23:31.821Z,6
2019-01-08T10:24:33.973Z,8
2019-01-08T10:25:36.112Z,14
2019-01-08T10:26:38.251Z,23
2019-01-08T10:27:40.781Z,31
2019-01-08T10:28:42.981Z,29
2019-01-08T10:29:45.408Z,33
2019-01-08T10:30:47.552Z,31
2019-01-08T10:31:49.806Z,20
2019-01-08T10:32:51.988Z,19
2019-01-08T10:33:54.133Z,14
2019-01-08T10:34:56.288Z,20
2019-01-08T10:35:58.407Z,25
2019-01-08T10:37:00.631Z,32
2019-01-08T10:38:02.760Z,25
2019-01-08T10:39:05.154Z,18
2019-01-08T10:40:07.317Z,16
2019-01-08T10:41:09.463Z,19
2019-01-08T10:42:12.013Z,19
2019-01-08T10:43:14.450Z,15
2019-01-08T10:44:16.586Z,17
2019-01-08T10:45:19.222Z,16
2019-01-08T10:46:21.367Z,17
2019-01-08T10:47:23.826Z,14
2019-01-08T10:48:25.972Z,15
2019-01-08T10:49:28.270Z,16
2019-01-08T10:50:30.411Z,15
2019-01-08T10:51:32.906Z,16
2019-01-08T10:52:35.452Z,18
2019-01-08T10:53:38.165Z,20
2019-01-08T10:54:40.859Z,23
2019-01-08T10:55:43.171Z,26
2019-01-08T10:56:45.517Z,29
2019-01-08T10:57:48.333Z,29
2019-01-08T10:58:50.472Z,33
2019-01-08T10:59:53.038Z,28
2019-01-08T11:00:56.325Z,26
2019-01-08T11:01:58.591Z,26
2019-01-08T11:03:01.194Z,24
2019-01-08T11:04:03.421Z,27
2019-01-08T11:05:05.886Z,27
2019-01-08T11:06:08.489Z,24
2019-01-08T11:07:11.062Z,25
2019-01-08T11:08:14.224Z,22
2019-01-08T11:09:16.748Z,22
2019-01-08T11:10:19.409Z,18
2019-01-08T11:11:22.172Z,15
2019-01-08T11:12:24.699Z,12
2019-01-08T11:13:27.421Z,12
2019-01-08T11:14:29.568Z,12
2019-01-08T11:15:31.711Z,13
2019-01-08T11:16:34.135Z,12
2019-01-08T11:17:36.266Z,13
2019-01-08T11:18:38.421Z,15
2019-01-08T11:19:40.548Z,11
2019-01-08T11:20:42.684Z,9
2019-01-08T11:21:44.901Z,9
2019-01-08T11:22:47.072Z,8
2019-01-08T11:23:49.210Z,8
2019-01-08T11:24:51.323Z,6
2019-01-08T11:25:53.460Z,7
2019-01-08T11:26:55.875Z,9
2019-01-08T11:27:58.069Z,8
2019-01-08T11:29:00.229Z,9
2019-01-08T11:30:02.395Z,9
2019-01-08T11:31:04.944Z,10
2019-01-08T11:32:07.070Z,10
2019-01-08T11:33:09.279Z,10
2019-01-08T11:34:11.706Z,9
2019-01-08T11:35:14.407Z,9
2019-01-08T11:36:16.549Z,10
2019-01-08T11:37:18.778Z,10
2019-01-08T11:38:20.929Z,12
2019-01-08T11:39:23.666Z,12
2019-01-08T11:40:26.220Z,11
2019-01-08T11:41:28.417Z,10
2019-01-08T11:42:30.528Z,10
2019-01-08T11:43:32.660Z,11
2019-01-08T11:44:35.141Z,11
2019-01-08T11:45:37.821Z,9
2019-01-08T11:46:39.995Z,7
2019-01-08T11:47:42.592Z,6
2019-01-08T11:48:45.301Z,6
2019-01-08T11:49:48.549Z,7
2019-01-08T11:50:50.926Z,7
2019-01-08T11:51:53.353Z,8
2019-01-08T11:52:55.508Z,9
2019-01-08T11:53:57.649Z,8
2019-01-08T11:54:59.877Z,8
2019-01-08T11:56:01.996Z,8
2019-01-08T11:57:04.229Z,7
2019-01-08T11:58:06.367Z,6
2019-01-08T11:59:09.438Z,6
2019-01-08T12:00:11.582Z,7
2019-01-08T12:01:14.448Z,8
2019-01-08T12:02:16.928Z,7
2019-01-08T12:03:20.012Z,7
2019-01-08T12:04:22.512Z,7
2019-01-08T12:05:26.822Z,7
2019-01-08T12:06:29.486Z,8
2019-01-08T12:07:32.939Z,8
2019-01-08T12:08:35.431Z,7
2019-01-08T12:09:37.654Z,6
2019-01-08T12:10:39.921Z,6
2019-01-08T12:11:42.541Z,6
2019-01-08T12:12:44.703Z,7
2019-01-08T12:13:46.865Z,6
2019-01-08T12:14:49.099Z,6
2019-01-08T12:15:51.394Z,6
2019-01-08T12:16:53.558Z,8
2019-01-08T12:17:55.980Z,10
2019-01-08T12:18:59.247Z,10
2019-01-08T12:20:02.031Z,12
2019-01-08T12:21:05.280Z,12
2019-01-08T12:22:08.034Z,13
2019-01-08T12:23:10.182Z,14
2019-01-08T12:24:12.339Z,14
2019-01-08T12:25:14.469Z,14
2019-01-08T12:26:16.630Z,13
2019-01-08T12:27:18.786Z,13
2019-01-08T12:28:20.974Z,13
2019-01-08T12:29:23.143Z,15
2019-01-08T12:30:25.312Z,13
2019-01-08T12:31:27.516Z,9
2019-01-08T12:32:29.650Z,8
2019-01-08T12:33:31.824Z,9
2019-01-08T12:34:33.945Z,9
2019-01-08T12:35:36.077Z,10
2019-01-08T12:36:38.523Z,11
2019-01-08T12:37:42.723Z,12
2019-01-08T12:38:44.886Z,14
2019-01-08T12:39:47.329Z,16
2019-01-08T12:40:49.478Z,17
2019-01-08T12:41:51.602Z,21
2019-01-08T12:42:53.761Z,26
2019-01-08T12:43:57.379Z,29
2019-01-08T12:44:59.912Z,30
2019-01-08T12:46:02.064Z,29
2019-01-08T12:47:04.229Z,26
2019-01-08T12:48:06.392Z,24
2019-01-08T12:49:08.534Z,22
2019-01-08T12:50:10.695Z,22
2019-01-08T12:51:12.858Z,25
2019-01-08T12:52:14.990Z,25
2019-01-08T12:53:17.170Z,24
2019-01-08T12:54:19.311Z,25
2019-01-08T12:55:21.467Z,25
2019-01-08T12:56:23.662Z,25
2019-01-08T12:57:25.819Z,26
2019-01-08T12:58:27.957Z,26
2019-01-08T12:59:30.087Z,25
2019-01-08T13:00:32.248Z,25
2019-01-08T13:01:34.407Z,25
2019-01-08T13:02:36.570Z,28
2019-01-08T13:03:38.709Z,24
2019-01-08T13:04:40.848Z,19
2019-01-08T13:05:43.076Z,16
2019-01-08T13:06:45.236Z,12
2019-01-08T13:07:47.402Z,13
2019-01-08T13:08:49.559Z,13
2019-01-08T13:09:51.713Z,14
2019-01-08T13:10:54.180Z,13
2019-01-08T13:11:56.343Z,11
2019-01-08T13:12:58.888Z,10
2019-01-08T13:14:01.025Z,10
2019-01-08T13:15:03.161Z,9
2019-01-08T13:16:05.410Z,10
2019-01-08T13:17:13.338Z,10
2019-01-08T13:18:15.515Z,10
2019-01-08T13:19:17.750Z,10
2019-01-08T13:20:20.268Z,10
2019-01-08T13:21:22.405Z,10
2019-01-08T13:22:24.552Z,9
2019-01-08T13:23:26.699Z,7
2019-01-08T13:24:28.869Z,6
2019-01-08T13:25:31.019Z,6
2019-01-08T13:26:33.190Z,6
2019-01-08T13:27:35.323Z,5
2019-01-08T13:28:37.747Z,5
2019-01-08T13:29:39.882Z,6
2019-01-08T13:30:42.014Z,5
2019-01-08T13:31:44.156Z,5
2019-01-08T13:32:46.428Z,5
2019-01-08T13:33:48.557Z,5
2019-01-08T13:34:50.711Z,5
2019-01-08T13:35:52.881Z,5
2019-01-08T13:36:55.155Z,5
2019-01-08T13:37:57.320Z,4
2019-01-08T13:38:59.519Z,4
2019-01-08T13:40:01.994Z,3
2019-01-08T13:41:04.457Z,3
2019-01-08T13:42:06.637Z,2
2019-01-08T13:43:08.766Z,2
2019-01-08T13:44:10.918Z,2
2019-01-08T13:45:13.110Z,2
2019-01-08T13:46:15.537Z,4
2019-01-08T13:47:17.982Z,6
2019-01-08T13:48:20.467Z,10
2019-01-08T13:49:23.224Z,10
2019-01-08T13:50:26.077Z,10
2019-01-08T13:51:28.290Z,12
2019-01-08T13:52:30.494Z,13
2019-01-08T13:53:32.649Z,13
2019-01-08T13:54:34.819Z,12
2019-01-08T13:55:37.027Z,11
2019-01-08T13:56:39.161Z,11
2019-01-08T13:57:41.371Z,11
2019-01-08T13:58:43.520Z,12
2019-01-08T13:59:45.701Z,12
2019-01-08T14:00:47.953Z,11
2019-01-08T14:01:50.175Z,11
2019-01-08T14:02:52.369Z,11
2019-01-08T14:03:54.527Z,10
2019-01-08T14:04:57.087Z,9
2019-01-08T14:05:59.621Z,9
2019-01-08T14:07:02.196Z,9
2019-01-08T14:08:04.409Z,8
2019-01-08T14:09:06.572Z,8
2019-01-08T14:10:09.128Z,8
2019-01-08T14:11:11.326Z,10
2019-01-08T14:12:13.522Z,11
2019-01-08T14:13:15.709Z,12
2019-01-08T14:14:17.896Z,12
2019-01-08T14:15:20.488Z,11
2019-01-08T14:16:23.058Z,11
2019-01-08T14:17:25.272Z,11
2019-01-08T14:18:27.486Z,11
2019-01-08T14:19:29.662Z,11
2019-01-08T14:20:31.863Z,10
2019-01-08T14:21:34.032Z,9
2019-01-08T14:22:36.242Z,8
2019-01-08T14:23:38.429Z,6
2019-01-08T14:24:40.547Z,5
2019-01-08T14:25:42.687Z,4
2019-01-08T14:26:45.225Z,4
2019-01-08T14:27:47.372Z,3
2019-01-08T14:28:49.797Z,3
2019-01-08T14:29:51.935Z,3
2019-01-08T14:30:54.181Z,2
2019-01-08T14:31:56.335Z,2
2019-01-08T14:32:58.453Z,2
2019-01-08T14:34:00.606Z,2
2019-01-08T14:35:03.159Z,2
2019-01-08T14:36:05.323Z,2
2019-01-08T14:37:07.473Z,2
2019-01-08T14:38:09.897Z,2
2019-01-08T14:39:12.048Z,1
2019-01-08T14:40:14.170Z,1
2019-01-08T14:41:16.418Z,1
2019-01-08T14:42:18.549Z,1
2019-01-08T14:43:21.040Z,1
2019-01-08T14:44:23.216Z,1
2019-01-08T14:45:25.356Z,1
2019-01-08T14:46:27.476Z,1
2019-01-08T14:47:29.614Z,1
2019-01-08T14:48:31.748Z,1
2019-01-08T14:49:33.874Z,1
2019-01-08T14:50:36.026Z,1
2019-01-08T14:51:38.211Z,0
2019-01-08T14:52:40.749Z,0
2019-01-08T14:53:43.045Z,0
2019-01-08T14:54:45.185Z,0
2019-01-08T14:55:47.960Z,0
2019-01-08T14:56:50.110Z,0
2019-01-08T14:57:52.264Z,0
2019-01-08T14:58:54.399Z,0
2019-01-08T14:59:56.933Z,0
2019-01-08T15:01:02.248Z,0
2019-01-08T15:02:12.123Z,0
2019-01-08T15:03:17.910Z,0
2019-01-08T15:04:21.072Z,0
2019-01-08T15:05:23.231Z,0
2019-01-08T15:06:26.894Z,0
2019-01-08T15:07:29.106Z,0
2019-01-08T15:08:34.145Z,0
2019-01-08T15:09:37.955Z,0
2019-01-08T15:10:43.951Z,0
2019-01-08T15:11:48.531Z,0
2019-01-08T15:12:51.220Z,0
2019-01-08T15:13:55.143Z,0
2019-01-08T15:14:59.217Z,0
2019-01-08T15:16:02.362Z,0
2019-01-08T15:17:06.793Z,0